Time;durP1;ratioP1;P1;durP2;ratioP2;P2;SDS_P1;SDS_P2;PMS_P1;PMS_P2;Temp;Humidity;BMP_temperature;BMP_pressure;BME280_temperature;BME280_humidity;BME280_pressure;Samples;Min_cycle;Max_cycle;Signal;HPM_P1;HPM_P2
2023/01/28 00:01:11;;;;;;;17.40;12.60;;;;;;;-0.28;100.00;100029.92;103923;1261;61053;-61
2023/01/28 00:03:40;;;;;;;21.40;13.10;;;;;;;-0.32;100.00;100031.27;103970;1263;59853;-61
2023/01/28 00:06:13;;;;;;;20.00;13.50;;;;;;;-0.32;100.00;100030.25;103913;1262;72267;-61
2023/01/28 00:08:42;;;;;;;20.60;12.60;;;;;;;-0.29;100.00;100031.63;103987;1262;69904;-62
2023/01/28 04:03:36;;;;;;;14.30;10.40;;;;;;;-3.22;100.00;99996.37;102388;1279;618876;-61
2023/01/28 04:06:08;;;;;;;17.40;10.50;;;;;;;-2.51;100.00;100006.70;103606;1266;61076;-61
2023/01/28 04:09:05;;;;;;;17.00;11.40;;;;;;;-2.22;100.00;99999.23;103526;1266;59548;-61
2023/01/28 04:11:51;;;;;;;16.40;11.20;;;;;;;-2.00;100.00;99995.27;103526;1266;72013;-62
2023/01/28 04:14:25;;;;;;;17.00;11.30;;;;;;;-1.80;100.00;99991.23;103779;1267;68456;-62
2023/01/28 04:17:06;;;;;;;15.90;11.10;;;;;;;-1.63;100.00;99990.23;104003;1264;147957;-63
2023/01/28 04:19:36;;;;;;;16.70;11.70;;;;;;;-1.51;100.00;99993.30;103966;1268;59488;-61
2023/01/28 04:22:05;;;;;;;12.40;9.70;;;;;;;-1.45;100.00;99989.08;103841;1267;60069;-61
2023/01/28 04:24:35;;;;;;;14.30;10.50;;;;;;;-1.41;100.00;99989.64;103974;1264;71738;-61
2023/01/28 04:27:02;;;;;;;15.90;10.60;;;;;;;-1.32;100.00;99989.23;103865;1277;68571;-62
2023/01/28 04:29:30;;;;;;;;;;;;;;;-1.19;100.00;99988.31;104282;1256;72094;-62
2023/01/28 04:32:06;;;;;;;17.90;10.10;;;;;;;-1.15;100.00;99989.91;104439;1253;59750;-62
2023/01/28 04:35:13;;;;;;;15.90;10.30;;;;;;;-1.13;100.00;99995.44;103947;1260;59850;-62
2023/01/28 04:38:07;;;;;;;14.90;10.60;;;;;;;-1.16;100.00;100001.08;103886;1264;72208;-61
2023/01/28 04:41:06;;;;;;;17.60;10.20;;;;;;;-1.11;100.00;100006.13;103951;1256;68961;-61
2023/01/28 04:43:35;;;;;;;15.30;11.00;;;;;;;-1.05;100.00;100004.30;104323;1256;71902;-61
2023/01/28 04:46:20;;;;;;;14.70;9.70;;;;;;;-1.00;100.00;100007.09;104388;1253;59822;-61
2023/01/28 04:49:08;;;;;;;16.10;9.60;;;;;;;-0.98;100.00;100007.98;104390;1265;60303;-62
2023/01/28 04:51:55;;;;;;;13.80;9.70;;;;;;;-0.97;100.00;100008.33;104326;1255;72069;-61
2023/01/28 04:54:35;;;;;;;13.60;10.20;;;;;;;-0.89;100.00;100007.90;104308;1252;69714;-65
2023/01/28 04:57:03;;;;;;;18.40;11.70;;;;;;;-0.80;100.00;100009.36;104243;1256;71972;-63
2023/01/28 04:59:30;;;;;;;;;;;;;;;-0.76;100.00;100004.05;104332;1256;59693;-63
2023/01/28 05:01:58;;;;;;;12.90;9.30;;;;;;;-0.76;100.00;100005.77;104572;1256;59747;-64
2023/01/28 05:04:25;;;;;;;;;;;;;;;-0.76;100.00;100001.80;104458;1253;73056;-63
2023/01/28 05:06:52;;;;;;;16.60;9.80;;;;;;;-0.76;100.00;100000.77;104777;1254;68892;-62
2023/01/28 05:09:24;;;;;;;13.10;9.30;;;;;;;-0.73;100.00;99999.25;104412;1265;71512;-63
2023/01/28 05:11:51;;;;;;;14.80;10.00;;;;;;;-0.69;100.00;99998.09;104499;1269;60648;-62
2023/01/28 05:14:19;;;;;;;13.40;8.90;;;;;;;-0.70;100.00;99995.84;104469;1257;59777;-63
2023/01/28 05:16:53;;;;;;;15.10;10.80;;;;;;;-0.72;100.00;99990.65;104546;1263;71972;-62
2023/01/28 05:19:20;;;;;;;14.50;9.90;;;;;;;-0.79;100.00;99994.39;104279;1266;69680;-62
2023/01/28 05:21:47;;;;;;;14.10;10.20;;;;;;;-0.81;100.00;99991.10;104416;1269;72795;-62
2023/01/28 05:24:34;;;;;;;13.60;10.20;;;;;;;-0.80;100.00;99986.64;104483;1253;59853;-62
2023/01/28 05:27:02;;;;;;;15.70;9.90;;;;;;;-0.74;100.00;99989.09;104635;1253;59839;-63
2023/01/28 05:29:30;;;;;;;15.70;10.40;;;;;;;-0.72;100.00;99989.29;104297;1258;72213;-62
2023/01/28 05:31:58;;;;;;;15.10;10.40;;;;;;;-0.69;100.00;99990.00;104524;1259;70192;-63
2023/01/28 05:34:26;;;;;;;14.70;10.20;;;;;;;-0.70;100.00;99992.39;104256;1258;72118;-62
2023/01/28 05:36:55;;;;;;;14.30;9.80;;;;;;;-0.68;100.00;99997.23;104392;1265;60524;-62
2023/01/28 05:39:39;;;;;;;14.30;9.90;;;;;;;-0.61;100.00;99996.08;104305;1272;59772;-64
2023/01/28 05:42:07;;;;;;;17.70;10.30;;;;;;;-0.58;100.00;100000.77;104493;1253;74229;-62
2023/01/28 05:44:40;;;;;;;11.40;9.50;;;;;;;-0.58;100.00;100001.62;104397;1271;69505;-64
2023/01/28 05:47:15;;;;;;;14.20;10.20;;;;;;;-0.59;100.00;100001.27;104253;1262;72625;-63
2023/01/28 05:49:45;;;;;;;14.70;10.30;;;;;;;-0.55;100.00;99999.91;104485;1252;61571;-63
2023/01/28 05:52:37;;;;;;;15.00;10.30;;;;;;;-0.56;100.00;100002.85;104457;1260;61858;-66
2023/01/28 05:55:08;;;;;;;15.40;11.50;;;;;;;-0.50;100.00;100000.65;104354;1253;74633;-62
2023/01/28 05:57:36;;;;;;;14.10;10.10;;;;;;;-0.46;100.00;100001.54;104656;1253;70546;-62
2023/01/28 06:00:04;;;;;;;14.30;9.80;;;;;;;-0.45;100.00;100004.14;104370;1259;71672;-62
2023/01/28 06:02:42;;;;;;;13.00;9.10;;;;;;;-0.46;100.00;100005.33;104730;1257;60535;-63
2023/01/28 06:05:12;;;;;;;15.70;11.00;;;;;;;-0.43;100.00;100005.02;104345;1257;61300;-65
2023/01/28 06:07:44;;;;;;;15.10;11.00;;;;;;;-0.37;100.00;100000.23;104380;1253;72755;-63
2023/01/28 06:10:12;;;;;;;13.10;9.70;;;;;;;-0.35;100.00;99996.11;104433;1259;70641;-64
2023/01/28 06:12:41;;;;;;;15.50;10.30;;;;;;;-0.38;100.00;100001.77;104163;1261;73511;-62
2023/01/28 06:15:29;;;;;;;12.90;9.30;;;;;;;-0.41;100.00;100005.89;104295;1259;59763;-63
2023/01/28 06:18:18;;;;;;;11.80;9.30;;;;;;;-0.46;100.00;100008.10;104249;1256;59637;-62
2023/01/28 06:20:48;;;;;;;15.70;10.40;;;;;;;-0.48;100.00;100006.52;104380;1257;72723;-62
2023/01/28 06:23:16;;;;;;;13.30;10.50;;;;;;;-0.41;100.00;100009.34;104227;1263;68374;-65
2023/01/28 06:25:44;;;;;;;14.50;10.20;;;;;;;-0.36;100.00;100006.27;104429;1259;73759;-65
2023/01/28 06:28:17;;;;;;;15.80;9.70;;;;;;;-0.39;100.00;100011.60;103977;1264;60998;-66
2023/01/28 06:30:48;;;;;;;14.90;10.20;;;;;;;-0.39;100.00;100015.38;104472;1254;62401;-64
2023/01/28 06:33:16;;;;;;;16.10;10.00;;;;;;;-0.36;100.00;100014.35;104621;1253;75062;-65
2023/01/28 06:35:44;;;;;;;16.10;10.20;;;;;;;-0.30;100.00;100018.88;104436;1268;69817;-64
2023/01/28 06:38:11;;;;;;;15.20;11.00;;;;;;;-0.26;100.00;100009.79;104325;1258;74369;-65
2023/01/28 06:40:39;;;;;;;15.50;9.90;;;;;;;-0.23;100.00;100007.05;104236;1258;59772;-63
2023/01/28 06:43:06;;;;;;;14.20;9.30;;;;;;;-0.23;100.00;100006.71;104438;1260;60961;-62
2023/01/28 06:45:35;;;;;;;13.70;8.10;;;;;;;-0.29;100.00;100006.33;104375;1256;74760;-63
2023/01/28 06:48:04;;;;;;;11.80;9.10;;;;;;;-0.33;100.00;100012.49;104246;1253;71326;-61
2023/01/28 06:50:36;;;;;;;13.70;9.20;;;;;;;-0.32;100.00;100019.73;104036;1261;71711;-63
2023/01/28 06:53:03;;;;;;;;;;;;;;;-0.29;100.00;100023.20;104204;1261;59645;-63
2023/01/28 06:55:30;;;;;;;14.70;9.50;;;;;;;-0.35;100.00;100021.27;104392;1271;60843;-61
2023/01/28 06:57:57;;;;;;;14.50;9.30;;;;;;;-0.36;100.00;100019.02;104610;1253;73028;-61
2023/01/28 07:00:25;;;;;;;13.00;9.00;;;;;;;-0.35;100.00;100023.84;104331;1259;69041;-62
2023/01/28 07:02:55;;;;;;;12.10;9.30;;;;;;;-0.34;100.00;100022.30;104686;1259;74071;-64
2023/01/28 07:05:23;;;;;;;15.00;10.40;;;;;;;-0.29;100.00;100015.11;104197;1275;62866;-61
2023/01/28 07:07:52;;;;;;;15.50;11.30;;;;;;;-0.20;100.00;100015.34;104383;1261;61118;-64
2023/01/28 07:10:20;;;;;;;14.90;10.50;;;;;;;-0.14;100.00;100016.92;104167;1267;72950;-62
2023/01/28 07:12:48;;;;;;;13.10;10.30;;;;;;;-0.15;100.00;100016.76;104388;1260;70584;-63
2023/01/28 07:15:16;;;;;;;15.40;9.40;;;;;;;-0.18;100.00;100017.08;104458;1275;72957;-61
2023/01/28 07:17:43;;;;;;;16.50;9.80;;;;;;;-0.21;100.00;100014.98;104760;1253;60765;-62
2023/01/28 07:20:13;;;;;;;16.90;11.30;;;;;;;-0.20;100.00;100014.48;104440;1253;59723;-62
2023/01/28 07:22:41;;;;;;;14.30;10.30;;;;;;;-0.14;100.00;100014.69;104336;1254;72355;-60
2023/01/28 07:25:09;;;;;;;14.10;10.60;;;;;;;-0.15;100.00;100016.25;104247;1256;70936;-63
2023/01/28 07:27:36;;;;;;;14.10;10.10;;;;;;;-0.12;100.00;100015.58;104297;1253;74045;-61
2023/01/28 07:30:04;;;;;;;15.10;9.80;;;;;;;-0.08;100.00;100011.11;104299;1258;59703;-61
2023/01/28 07:32:32;;;;;;;18.20;11.60;;;;;;;-0.11;100.00;100010.92;104438;1253;59858;-60
2023/01/28 07:34:59;;;;;;;16.20;10.70;;;;;;;-0.09;100.00;100011.61;104180;1258;73094;-60
2023/01/28 07:37:27;;;;;;;16.30;12.40;;;;;;;-0.01;100.00;100013.05;104432;1258;68773;-61
2023/01/28 07:39:55;;;;;;;15.60;11.20;;;;;;;0.00;100.00;100013.57;104156;1259;73851;-62
2023/01/28 07:42:23;;;;;;;16.10;10.70;;;;;;;-0.04;100.00;100017.67;104482;1262;60338;-62
2023/01/28 07:44:53;;;;;;;16.90;10.80;;;;;;;-0.04;100.00;100017.68;104383;1268;61460;-62
2023/01/28 07:47:21;;;;;;;15.30;11.20;;;;;;;-0.07;100.00;100024.90;104322;1258;74194;-61
2023/01/28 07:49:48;;;;;;;18.60;11.20;;;;;;;-0.04;100.00;100025.61;104429;1256;71446;-59
2023/01/28 12:27:31;;;;;;;7.70;5.80;;;;;;;-1.91;100.00;99872.50;102559;1291;601136;-65
2023/01/28 12:30:18;;;;;;;15.00;10.40;;;;;;;-0.98;100.00;99870.65;103703;1287;61160;-63
2023/01/28 12:33:21;;;;;;;17.40;12.10;;;;;;;-0.63;100.00;99856.61;103853;1281;59257;-64
2023/01/28 12:36:06;;;;;;;21.00;13.40;;;;;;;-0.30;100.00;99850.06;103934;1264;72324;-65
2023/01/28 12:38:56;;;;;;;16.10;12.50;;;;;;;0.03;100.00;99847.77;103522;1272;69211;-65
2023/01/28 12:41:28;;;;;;;17.30;13.30;;;;;;;0.26;100.00;99845.42;103818;1266;151330;-65
2023/01/28 12:44:02;;;;;;;17.60;12.40;;;;;;;0.43;100.00;99844.77;103977;1265;59417;-67
2023/01/28 12:47:00;;;;;;;17.00;11.10;;;;;;;0.60;100.00;99841.35;103884;1279;60061;-64
2023/01/28 12:49:39;;;;;;;17.00;11.10;;;;;;;0.83;100.00;99837.55;104289;1260;71864;-62
2023/01/28 12:52:48;;;;;;;18.50;12.00;;;;;;;1.04;100.00;99840.13;104432;1270;68887;-64
2023/01/28 12:55:18;;;;;;;17.20;11.90;;;;;;;1.22;100.00;99830.60;103922;1267;72964;-63
2023/01/28 12:57:47;;;;;;;16.90;11.50;;;;;;;1.32;100.00;99826.44;104248;1256;59759;-67
2023/01/28 13:00:32;;;;;;;16.30;12.00;;;;;;;1.40;100.00;99829.36;104037;1260;59627;-65
2023/01/28 13:03:01;;;;;;;16.00;11.50;;;;;;;1.45;100.00;99827.29;104770;1263;73114;-65
2023/01/28 13:05:36;;;;;;;17.00;11.50;;;;;;;1.46;100.00;99824.86;104641;1256;69047;-67
2023/01/28 13:08:25;;;;;;;16.70;11.60;;;;;;;1.49;100.00;99824.48;104662;1259;73905;-63
2023/01/28 13:10:55;;;;;;;18.50;12.70;;;;;;;1.49;100.00;99822.94;104293;1259;59651;-64
2023/01/28 13:13:32;;;;;;;18.90;11.30;;;;;;;1.48;100.00;99822.94;104314;1264;59968;-66
2023/01/28 13:16:02;;;;;;;15.30;11.50;;;;;;;1.45;100.00;99823.65;104407;1255;73164;-63
2023/01/28 13:18:31;;;;;;;15.00;10.50;;;;;;;1.46;100.00;99821.75;104404;1257;70026;-64
2023/01/28 13:21:01;;;;;;;15.80;11.80;;;;;;;1.52;100.00;99821.02;104309;1259;71955;-63
2023/01/28 13:23:29;;;;;;;18.60;11.90;;;;;;;1.56;100.00;99820.16;105077;1254;61277;-63
2023/01/28 13:26:24;;;;;;;17.40;13.00;;;;;;;1.68;100.00;99824.61;104448;1255;60312;-62
2023/01/28 13:28:53;;;;;;;15.50;12.10;;;;;;;1.76;100.00;99823.36;104255;1257;72230;-62
2023/01/28 13:31:22;;;;;;;19.00;12.70;;;;;;;1.79;100.00;99821.10;104363;1256;70150;-61
2023/01/28 13:33:54;;;;;;;13.70;10.90;;;;;;;1.79;100.00;99823.17;104008;1262;71555;-61
2023/01/28 13:36:39;;;;;;;15.20;10.70;;;;;;;1.77;100.00;99826.81;104423;1257;59861;-62
2023/01/28 13:39:16;;;;;;;16.20;11.00;;;;;;;1.62;100.00;99832.92;104302;1255;60256;-62
2023/01/28 13:41:50;;;;;;;16.50;12.00;;;;;;;1.54;100.00;99827.60;104466;1259;72741;-59
2023/01/28 13:44:24;;;;;;;16.90;11.90;;;;;;;1.49;100.00;99829.16;104241;1258;68578;-61
2023/01/28 13:47:25;;;;;;;16.00;11.60;;;;;;;1.40;100.00;99829.02;104605;1261;71608;-63
2023/01/28 13:49:58;;;;;;;17.10;11.80;;;;;;;1.32;100.00;99825.76;104333;1267;59663;-62
2023/01/28 13:52:48;;;;;;;15.60;11.20;;;;;;;1.29;100.00;99829.21;104290;1259;59710;-64
2023/01/28 13:55:19;;;;;;;14.10;10.30;;;;;;;1.25;100.00;99823.36;104791;1259;73364;-64
2023/01/28 13:58:12;;;;;;;16.00;11.20;;;;;;;1.18;100.00;99823.20;104508;1260;69588;-62
2023/01/28 14:00:45;;;;;;;16.80;11.40;;;;;;;1.15;100.00;99823.20;104334;1253;71978;-63
2023/01/28 14:03:38;;;;;;;18.00;12.80;;;;;;;1.14;100.00;99821.98;104471;1251;60567;-62
2023/01/28 14:06:21;;;;;;;15.70;11.10;;;;;;;1.09;100.00;99828.21;104334;1255;60062;-64
2023/01/28 14:08:56;;;;;;;20.00;12.00;;;;;;;1.05;100.00;99830.29;104328;1253;73262;-63
2023/01/28 14:11:31;;;;;;;16.00;11.20;;;;;;;0.99;100.00;99828.39;104309;1253;69566;-63
2023/01/28 14:14:22;;;;;;;16.70;10.70;;;;;;;0.88;100.00;99830.64;104300;1266;72508;-62
2023/01/28 14:16:56;;;;;;;16.30;10.50;;;;;;;0.79;100.00;99824.45;104311;1251;61133;-62
2023/01/28 14:19:30;;;;;;;18.40;11.80;;;;;;;0.76;100.00;99825.65;104255;1257;59730;-62
2023/01/28 14:21:58;;;;;;;16.60;11.90;;;;;;;0.75;100.00;99828.23;104321;1256;72195;-62
2023/01/28 14:24:27;;;;;;;17.40;11.40;;;;;;;0.70;100.00;99829.61;104356;1257;69868;-63
2023/01/28 14:27:05;;;;;;;17.00;11.20;;;;;;;0.65;100.00;99831.51;104405;1254;72180;-63
2023/01/28 14:29:43;;;;;;;15.60;9.40;;;;;;;0.61;100.00;99831.50;104351;1260;61374;-63
2023/01/28 14:32:31;;;;;;;;;;;;;;;0.55;100.00;99828.39;104316;1270;59654;-62
2023/01/28 14:35:05;;;;;;;14.70;9.10;;;;;;;0.40;100.00;99826.14;104533;1251;72410;-62
2023/01/28 14:37:59;;;;;;;15.50;10.40;;;;;;;0.27;100.00;99828.02;106565;1251;69892;-61
2023/01/28 14:40:29;;;;;;;26.00;14.90;;;;;;;0.23;100.00;99827.66;104407;1256;72316;-58
2023/01/28 14:42:57;;;;;;;38.70;18.80;;;;;;;0.25;100.00;99833.17;104084;1261;59641;-59
2023/01/28 14:45:48;;;;;;;37.70;18.70;;;;;;;0.19;100.00;99834.02;104199;1276;59720;-57
2023/01/28 14:48:32;;;;;;;40.00;17.80;;;;;;;0.11;100.00;99834.00;104183;1269;72136;-57
2023/01/28 14:51:12;;;;;;;35.20;17.70;;;;;;;0.06;100.00;99836.23;104065;1278;70210;-60
2023/01/28 14:54:28;;;;;;;36.40;17.00;;;;;;;0.01;100.00;99838.29;103907;1275;72955;-58
2023/01/28 14:57:09;;;;;;;46.60;22.00;;;;;;;-0.08;100.00;99835.50;103926;1256;60929;-60
2023/01/28 14:59:45;;;;;;;52.00;25.00;;;;;;;-0.08;100.00;99844.29;104051;1260;59766;-57
2023/01/28 15:02:21;;;;;;;54.80;25.80;;;;;;;-0.05;100.00;99844.30;104073;1266;72159;-57
2023/01/28 15:04:50;;;;;;;51.70;25.80;;;;;;;-0.07;100.00;99845.16;104148;1269;69075;-59
2023/01/28 15:07:18;;;;;;;51.40;23.30;;;;;;;-0.11;100.00;99849.11;104137;1260;73625;-57
2023/01/28 15:10:19;;;;;;;41.40;19.80;;;;;;;-0.14;100.00;99852.89;104185;1269;59646;-59
2023/01/28 15:12:51;;;;;;;43.40;17.40;;;;;;;-0.22;100.00;99858.38;104069;1264;59850;-57
2023/01/28 15:15:36;;;;;;;40.40;20.80;;;;;;;-0.29;100.00;99859.02;104117;1265;73007;-57
2023/01/28 15:18:20;;;;;;;37.00;21.40;;;;;;;-0.32;100.00;99858.66;104060;1261;69368;-58
2023/01/28 15:20:50;;;;;;;47.30;25.70;;;;;;;-0.30;100.00;99860.23;104055;1265;72464;-57
2023/01/28 15:23:37;;;;;;;42.30;22.40;;;;;;;-0.34;100.00;99860.20;104205;1262;59701;-60
2023/01/28 15:26:17;;;;;;;40.90;22.70;;;;;;;-0.42;100.00;99864.98;104245;1261;59640;-56
2023/01/28 15:28:46;;;;;;;42.60;22.40;;;;;;;-0.47;100.00;99867.71;104141;1271;73220;-60
2023/01/28 15:31:25;;;;;;;43.20;20.20;;;;;;;-0.49;100.00;99863.92;104256;1269;69027;-59
2023/01/28 15:34:02;;;;;;;40.60;21.30;;;;;;;-0.54;100.00;99866.30;104095;1257;73068;-61
2023/01/28 15:36:31;;;;;;;40.20;20.00;;;;;;;-0.55;100.00;99866.64;104111;1279;60384;-60
2023/01/28 15:38:59;;;;;;;40.80;21.30;;;;;;;-0.54;100.00;99867.16;104474;1262;61710;-59
2023/01/28 15:41:33;;;;;;;41.00;20.50;;;;;;;-0.55;100.00;99865.95;104322;1269;72446;-63
2023/01/28 15:44:02;;;;;;;45.20;21.40;;;;;;;-0.61;100.00;99862.13;104040;1279;69472;-62
2023/01/28 15:46:31;;;;;;;40.60;20.60;;;;;;;-0.67;100.00;99867.61;103908;1272;71948;-60
2023/01/28 15:49:02;;;;;;;44.10;21.80;;;;;;;-0.73;100.00;99867.05;104414;1261;59759;-59
2023/01/28 15:51:32;;;;;;;51.00;25.40;;;;;;;-0.79;100.00;99869.41;104054;1262;59868;-59
2023/01/28 15:54:08;;;;;;;55.50;27.00;;;;;;;-0.82;100.00;99866.98;104291;1257;72160;-60
2023/01/28 15:56:36;;;;;;;80.80;38.60;;;;;;;-0.78;100.00;99866.50;104398;1262;68814;-61
2023/01/28 20:57:47;;;;;;;5.40;3.90;;;;;;;-3.10;100.00;99924.39;102164;1302;601632;-61
2023/01/28 21:00:16;;;;;;;11.30;7.10;;;;;;;-2.37;100.00;99926.41;103929;1267;62564;-60
2023/01/28 21:02:45;;;;;;;11.50;8.90;;;;;;;-2.02;100.00;99923.60;103906;1269;60396;-60
2023/01/28 21:05:13;;;;;;;16.20;10.30;;;;;;;-1.78;100.00;99919.59;103759;1270;71066;-60
2023/01/28 21:07:42;;;;;;;15.70;10.80;;;;;;;-1.59;100.00;99916.52;103771;1273;69450;-59
2023/01/28 21:10:11;;;;;;;13.70;9.20;;;;;;;-1.44;100.00;99913.77;103849;1269;72627;-60
2023/01/28 21:12:39;;;;;;;12.00;9.00;;;;;;;-1.35;100.00;99910.59;103955;1276;59316;-60
2023/01/28 21:15:08;;;;;;;16.60;9.00;;;;;;;-1.30;100.00;99912.02;104150;1264;60518;-60
2023/01/28 21:17:37;;;;;;;11.60;8.60;;;;;;;-1.21;100.00;99907.80;104123;1257;73064;-61
2023/01/28 21:20:06;;;;;;;13.60;8.60;;;;;;;-1.10;100.00;99909.96;104164;1261;68283;-61
2023/01/28 21:22:34;;;;;;;11.40;8.60;;;;;;;-1.06;100.00;99906.73;104128;1257;72358;-60
2023/01/28 21:25:03;;;;;;;12.90;8.20;;;;;;;-1.07;100.00;99905.35;103981;1261;59731;-60
2023/01/28 21:27:34;;;;;;;13.50;8.60;;;;;;;-1.08;100.00;99903.60;104068;1258;59780;-60
2023/01/28 21:30:03;;;;;;;10.60;7.70;;;;;;;-1.12;100.00;99904.61;104056;1259;72209;-60
2023/01/28 21:32:31;;;;;;;11.50;8.00;;;;;;;-1.13;100.00;99904.94;104092;1273;68721;-60
2023/01/28 21:35:00;;;;;;;12.80;9.40;;;;;;;-1.11;100.00;99907.02;103953;1260;71758;-60
2023/01/28 21:37:29;;;;;;;13.50;9.00;;;;;;;-1.13;100.00;99909.92;104093;1257;59713;-59
2023/01/28 21:39:58;;;;;;;11.00;7.60;;;;;;;-1.18;100.00;99912.30;104256;1261;59811;-59
2023/01/28 21:42:27;;;;;;;12.50;8.60;;;;;;;-1.24;100.00;99915.85;104034;1257;73093;-59
2023/01/28 21:44:55;;;;;;;9.10;7.10;;;;;;;-1.29;100.00;99916.14;104025;1265;69785;-59
2023/01/28 21:47:24;;;;;;;11.80;7.90;;;;;;;-1.33;100.00;99918.02;104041;1261;71895;-60
2023/01/28 21:49:52;;;;;;;12.50;8.20;;;;;;;-1.32;100.00;99918.01;104083;1257;59730;-60
2023/01/28 21:52:21;;;;;;;14.60;8.80;;;;;;;-1.31;100.00;99921.80;104367;1251;60347;-60
2023/01/28 21:54:50;;;;;;;12.80;8.40;;;;;;;-1.36;100.00;99917.63;104316;1256;72398;-60
2023/01/28 21:57:22;;;;;;;10.60;7.50;;;;;;;-1.41;100.00;99919.64;104553;1257;69602;-60
2023/01/28 21:59:50;;;;;;;10.90;7.70;;;;;;;-1.49;100.00;99919.39;104346;1253;72590;-60
2023/01/28 22:02:19;;;;;;;11.70;8.00;;;;;;;-1.51;100.00;99921.42;104308;1256;60104;-60
2023/01/28 22:04:52;;;;;;;12.10;8.90;;;;;;;-1.48;100.00;99922.67;104274;1264;59756;-60
2023/01/28 22:07:20;;;;;;;14.40;9.40;;;;;;;-1.48;100.00;99926.45;104355;1253;71706;-60
2023/01/28 22:09:51;;;;;;;13.70;9.30;;;;;;;-1.55;100.00;99923.96;104302;1264;69782;-60
2023/01/28 22:12:26;;;;;;;12.10;8.30;;;;;;;-1.58;100.00;99923.25;104336;1257;71980;-60
2023/01/28 22:14:55;;;;;;;12.00;8.30;;;;;;;-1.62;100.00;99921.14;104408;1253;60669;-59
2023/01/28 22:17:24;;;;;;;12.90;8.20;;;;;;;-1.62;100.00;99919.27;104230;1257;60191;-60
2023/01/28 22:19:53;;;;;;;12.30;8.80;;;;;;;-1.57;100.00;99918.27;104359;1254;72468;-60
2023/01/28 22:22:22;;;;;;;12.10;7.90;;;;;;;-1.56;100.00;99913.99;104310;1256;69976;-60
2023/01/28 22:24:50;;;;;;;12.60;8.00;;;;;;;-1.58;100.00;99911.22;104217;1264;71481;-59
2023/01/28 22:27:18;;;;;;;12.50;7.50;;;;;;;-1.61;100.00;99909.46;104330;1256;60072;-59
2023/01/28 22:29:47;;;;;;;11.40;8.10;;;;;;;-1.64;100.00;99903.75;104288;1264;61454;-59
2023/01/28 22:32:15;;;;;;;10.90;7.50;;;;;;;-1.64;100.00;99907.89;104390;1251;71769;-60
2023/01/28 22:34:43;;;;;;;12.30;8.70;;;;;;;-1.56;100.00;99904.70;104408;1256;69000;-60
2023/01/28 22:37:14;;;;;;;12.20;8.20;;;;;;;-1.56;100.00;99901.79;104256;1257;72667;-59
2023/01/28 22:39:42;;;;;;;11.20;8.10;;;;;;;-1.58;100.00;99898.31;104286;1268;59757;-59
2023/01/28 22:42:13;;;;;;;9.60;7.20;;;;;;;-1.62;100.00;99904.29;104297;1258;59659;-59
2023/01/28 22:44:41;;;;;;;10.60;7.60;;;;;;;-1.67;100.00;99905.62;104269;1256;72047;-61
2023/01/28 22:47:10;;;;;;;10.80;7.90;;;;;;;-1.64;100.00;99906.86;104271;1259;68987;-59
2023/01/28 22:49:38;;;;;;;10.70;8.00;;;;;;;-1.56;100.00;99907.62;104269;1267;72587;-60
2023/01/28 22:52:07;;;;;;;11.20;7.20;;;;;;;-1.56;100.00;99907.45;104278;1268;59737;-61
2023/01/28 22:54:36;;;;;;;10.60;7.10;;;;;;;-1.55;100.00;99907.13;104236;1267;59990;-60
2023/01/28 22:57:04;;;;;;;10.10;7.20;;;;;;;-1.59;100.00;99901.23;104256;1251;74068;-60
2023/01/28 22:59:32;;;;;;;10.90;7.40;;;;;;;-1.65;100.00;99897.91;104200;1256;70306;-60
2023/01/28 23:02:01;;;;;;;15.30;7.80;;;;;;;-1.65;100.00;99894.64;104223;1272;71725;-59
2023/01/28 23:04:29;;;;;;;10.90;7.70;;;;;;;-1.60;100.00;99890.40;104786;1261;61520;-60
2023/01/28 23:06:59;;;;;;;11.50;7.80;;;;;;;-1.58;100.00;99882.52;104475;1253;61338;-60
2023/01/28 23:09:28;;;;;;;12.70;8.30;;;;;;;-1.62;100.00;99883.50;104293;1253;72162;-59
2023/01/28 23:11:56;;;;;;;9.00;7.00;;;;;;;-1.67;100.00;99887.05;104264;1275;68761;-59
2023/01/28 23:25:48;;;;;;;;;;;;;;;-1.78;100.00;99880.07;104566;1257;69066;-59
2023/01/28 23:28:16;;;;;;;8.60;6.50;;;;;;;-1.86;100.00;99876.71;104642;1253;71484;-60
2023/01/28 23:30:45;;;;;;;8.10;6.20;;;;;;;-1.94;100.00;99875.77;104662;1251;61150;-59
2023/01/28 23:33:13;;;;;;;9.50;6.30;;;;;;;-1.96;100.00;99869.37;104622;1255;59638;-61
2023/01/28 23:35:42;;;;;;;10.70;7.90;;;;;;;-1.92;100.00;99873.20;104399;1267;72715;-59
2023/01/28 23:38:10;;;;;;;10.70;6.70;;;;;;;-1.92;100.00;99872.17;104389;1256;69739;-60
2023/01/28 23:40:39;;;;;;;9.10;6.90;;;;;;;-1.96;100.00;99870.76;104308;1258;72790;-59
2023/01/28 23:43:07;;;;;;;9.00;6.50;;;;;;;-2.02;100.00;99872.73;104318;1256;59644;-61
2023/01/28 23:45:38;;;;;;;10.40;7.20;;;;;;;-2.10;100.00;99874.73;104348;1254;59651;-61
2023/01/28 23:48:06;;;;;;;8.90;7.00;;;;;;;-2.13;100.00;99876.05;104289;1272;74121;-60
2023/01/28 23:50:34;;;;;;;9.40;7.50;;;;;;;-2.13;100.00;99875.38;104389;1252;68639;-60
2023/01/28 23:53:11;;;;;;;11.10;7.70;;;;;;;-2.15;100.00;99872.92;104292;1256;72308;-60
2023/01/28 23:55:40;;;;;;;10.60;7.30;;;;;;;-2.17;100.00;99869.66;104232;1256;59618;-60
2023/01/28 23:58:08;;;;;;;9.00;7.20;;;;;;;-2.20;100.00;99864.63;104447;1255;60484;-60
